sensor_id;sensor_type;location;lat;lon;timestamp;P1;durP1;ratioP1;P2;durP2;ratioP2
12212;SDS011;6169;44.158;22.788;2023-02-15T00:02:32;21.80;;;11.80;;
12212;SDS011;6169;44.158;22.788;2023-02-15T00:07:36;20.83;;;11.83;;
12212;SDS011;6169;44.158;22.788;2023-02-15T00:12:38;23.33;;;12.03;;
12212;SDS011;6169;44.158;22.788;2023-02-15T00:17:41;22.17;;;11.47;;
12212;SDS011;6169;44.158;22.788;2023-02-15T00:22:44;21.67;;;11.67;;
12212;SDS011;6169;44.158;22.788;2023-02-15T00:27:46;21.70;;;11.60;;
12212;SDS011;6169;44.158;22.788;2023-02-15T00:32:48;24.67;;;11.83;;
12212;SDS011;6169;44.158;22.788;2023-02-15T00:37:52;22.23;;;12.43;;
12212;SDS011;6169;44.158;22.788;2023-02-15T00:42:54;25.37;;;12.63;;
12212;SDS011;6169;44.158;22.788;2023-02-15T00:47:58;20.57;;;11.03;;
12212;SDS011;6169;44.158;22.788;2023-02-15T00:53:02;20.23;;;11.23;;
12212;SDS011;6169;44.158;22.788;2023-02-15T00:58:04;23.23;;;12.07;;
12212;SDS011;6169;44.158;22.788;2023-02-15T01:03:06;17.73;;;11.27;;
12212;SDS011;6169;44.158;22.788;2023-02-15T01:08:10;24.23;;;12.27;;
12212;SDS011;6169;44.158;22.788;2023-02-15T01:13:13;26.20;;;12.20;;
12212;SDS011;6169;44.158;22.788;2023-02-15T01:18:16;21.63;;;12.80;;
12212;SDS011;6169;44.158;22.788;2023-02-15T01:23:21;21.10;;;12.20;;
12212;SDS011;6169;44.158;22.788;2023-02-15T01:28:23;21.87;;;11.20;;
12212;SDS011;6169;44.158;22.788;2023-02-15T01:33:25;20.27;;;11.97;;
12212;SDS011;6169;44.158;22.788;2023-02-15T01:38:29;21.43;;;12.20;;
12212;SDS011;6169;44.158;22.788;2023-02-15T01:43:38;23.90;;;12.20;;
12212;SDS011;6169;44.158;22.788;2023-02-15T01:53:48;21.03;;;12.00;;
12212;SDS011;6169;44.158;22.788;2023-02-15T01:58:53;18.10;;;11.23;;
12212;SDS011;6169;44.158;22.788;2023-02-15T02:04:00;20.50;;;10.90;;
12212;SDS011;6169;44.158;22.788;2023-02-15T02:09:08;17.27;;;10.23;;
12212;SDS011;6169;44.158;22.788;2023-02-15T02:14:10;21.77;;;11.47;;
12212;SDS011;6169;44.158;22.788;2023-02-15T02:25:12;24.97;;;13.33;;
12212;SDS011;6169;44.158;22.788;2023-02-15T02:30:46;21.37;;;12.20;;
12212;SDS011;6169;44.158;22.788;2023-02-15T02:36:02;24.30;;;12.80;;
12212;SDS011;6169;44.158;22.788;2023-02-15T02:41:13;23.47;;;11.07;;
12212;SDS011;6169;44.158;22.788;2023-02-15T02:46:24;20.77;;;11.07;;
12212;SDS011;6169;44.158;22.788;2023-02-15T02:51:31;21.27;;;11.07;;
12212;SDS011;6169;44.158;22.788;2023-02-15T02:56:35;20.83;;;11.60;;
12212;SDS011;6169;44.158;22.788;2023-02-15T03:01:41;20.70;;;11.53;;
12212;SDS011;6169;44.158;22.788;2023-02-15T03:06:48;20.10;;;12.43;;
12212;SDS011;6169;44.158;22.788;2023-02-15T03:11:54;24.33;;;12.20;;
12212;SDS011;6169;44.158;22.788;2023-02-15T03:16:56;21.50;;;11.60;;
12212;SDS011;6169;44.158;22.788;2023-02-15T03:22:03;22.80;;;12.43;;
12212;SDS011;6169;44.158;22.788;2023-02-15T03:27:10;23.93;;;12.77;;
12212;SDS011;6169;44.158;22.788;2023-02-15T03:32:17;22.90;;;11.80;;
12212;SDS011;6169;44.158;22.788;2023-02-15T03:37:25;21.67;;;12.97;;
12212;SDS011;6169;44.158;22.788;2023-02-15T03:42:32;23.27;;;12.97;;
12212;SDS011;6169;44.158;22.788;2023-02-15T03:47:41;25.37;;;12.47;;
12212;SDS011;6169;44.158;22.788;2023-02-15T03:52:48;19.93;;;12.83;;
12212;SDS011;6169;44.158;22.788;2023-02-15T03:57:51;19.70;;;11.60;;
12212;SDS011;6169;44.158;22.788;2023-02-15T04:03:12;20.00;;;11.77;;
12212;SDS011;6169;44.158;22.788;2023-02-15T04:08:26;20.93;;;11.53;;
12212;SDS011;6169;44.158;22.788;2023-02-15T04:13:41;22.77;;;12.57;;
12212;SDS011;6169;44.158;22.788;2023-02-15T04:18:44;21.00;;;11.93;;
12212;SDS011;6169;44.158;22.788;2023-02-15T04:24:05;20.93;;;11.70;;
12212;SDS011;6169;44.158;22.788;2023-02-15T04:29:25;22.43;;;12.37;;
12212;SDS011;6169;44.158;22.788;2023-02-15T04:34:29;24.73;;;11.70;;
12212;SDS011;6169;44.158;22.788;2023-02-15T04:39:32;25.73;;;12.57;;
12212;SDS011;6169;44.158;22.788;2023-02-15T04:44:35;21.07;;;11.77;;
12212;SDS011;6169;44.158;22.788;2023-02-15T04:49:37;20.97;;;12.23;;
12212;SDS011;6169;44.158;22.788;2023-02-15T04:54:40;27.70;;;13.63;;
12212;SDS011;6169;44.158;22.788;2023-02-15T04:59:43;23.00;;;12.37;;
12212;SDS011;6169;44.158;22.788;2023-02-15T05:04:45;21.40;;;12.23;;
12212;SDS011;6169;44.158;22.788;2023-02-15T05:09:48;28.53;;;14.07;;
12212;SDS011;6169;44.158;22.788;2023-02-15T05:14:51;24.63;;;13.30;;
12212;SDS011;6169;44.158;22.788;2023-02-15T05:19:53;29.53;;;16.33;;
12212;SDS011;6169;44.158;22.788;2023-02-15T05:24:56;27.17;;;15.80;;
12212;SDS011;6169;44.158;22.788;2023-02-15T05:35:18;25.27;;;14.63;;
12212;SDS011;6169;44.158;22.788;2023-02-15T05:40:21;25.93;;;14.63;;
12212;SDS011;6169;44.158;22.788;2023-02-15T05:45:24;31.97;;;16.50;;
12212;SDS011;6169;44.158;22.788;2023-02-15T05:50:26;29.57;;;15.43;;
12212;SDS011;6169;44.158;22.788;2023-02-15T05:55:30;25.57;;;14.93;;
12212;SDS011;6169;44.158;22.788;2023-02-15T06:00:32;29.83;;;15.23;;
12212;SDS011;6169;44.158;22.788;2023-02-15T06:05:35;37.83;;;17.80;;
12212;SDS011;6169;44.158;22.788;2023-02-15T06:10:38;30.63;;;17.53;;
12212;SDS011;6169;44.158;22.788;2023-02-15T06:15:41;29.10;;;17.50;;
12212;SDS011;6169;44.158;22.788;2023-02-15T06:20:44;34.87;;;18.97;;
12212;SDS011;6169;44.158;22.788;2023-02-15T06:25:48;30.90;;;17.87;;
12212;SDS011;6169;44.158;22.788;2023-02-15T06:30:50;31.80;;;18.10;;
12212;SDS011;6169;44.158;22.788;2023-02-15T06:35:53;40.80;;;18.93;;
12212;SDS011;6169;44.158;22.788;2023-02-15T06:40:57;35.50;;;19.70;;
12212;SDS011;6169;44.158;22.788;2023-02-15T06:45:59;37.70;;;20.37;;
12212;SDS011;6169;44.158;22.788;2023-02-15T06:51:02;33.53;;;19.73;;
12212;SDS011;6169;44.158;22.788;2023-02-15T06:56:06;35.43;;;19.83;;
12212;SDS011;6169;44.158;22.788;2023-02-15T07:01:09;33.57;;;20.23;;
12212;SDS011;6169;44.158;22.788;2023-02-15T07:06:11;32.13;;;18.37;;
12212;SDS011;6169;44.158;22.788;2023-02-15T07:11:15;36.57;;;19.20;;
12212;SDS011;6169;44.158;22.788;2023-02-15T07:16:35;38.80;;;21.77;;
12212;SDS011;6169;44.158;22.788;2023-02-15T07:21:37;32.87;;;19.73;;
12212;SDS011;6169;44.158;22.788;2023-02-15T07:26:41;36.83;;;21.07;;
12212;SDS011;6169;44.158;22.788;2023-02-15T07:31:43;31.90;;;18.50;;
12212;SDS011;6169;44.158;22.788;2023-02-15T07:36:45;39.50;;;21.50;;
12212;SDS011;6169;44.158;22.788;2023-02-15T07:41:50;33.43;;;18.77;;
12212;SDS011;6169;44.158;22.788;2023-02-15T07:46:52;37.23;;;20.20;;
12212;SDS011;6169;44.158;22.788;2023-02-15T07:51:55;38.30;;;21.70;;
12212;SDS011;6169;44.158;22.788;2023-02-15T07:56:58;35.07;;;21.70;;
12212;SDS011;6169;44.158;22.788;2023-02-15T08:02:02;33.83;;;18.87;;
12212;SDS011;6169;44.158;22.788;2023-02-15T08:07:04;29.47;;;16.87;;
12212;SDS011;6169;44.158;22.788;2023-02-15T08:12:08;34.23;;;18.70;;
12212;SDS011;6169;44.158;22.788;2023-02-15T08:17:10;35.20;;;19.50;;
12212;SDS011;6169;44.158;22.788;2023-02-15T08:22:13;29.63;;;16.53;;
12212;SDS011;6169;44.158;22.788;2023-02-15T08:27:17;32.13;;;18.47;;
12212;SDS011;6169;44.158;22.788;2023-02-15T08:32:26;34.70;;;16.37;;
12212;SDS011;6169;44.158;22.788;2023-02-15T08:37:29;29.63;;;16.10;;
12212;SDS011;6169;44.158;22.788;2023-02-15T08:42:33;22.00;;;13.73;;
12212;SDS011;6169;44.158;22.788;2023-02-15T08:47:35;25.43;;;15.20;;
12212;SDS011;6169;44.158;22.788;2023-02-15T08:52:37;25.90;;;16.50;;
12212;SDS011;6169;44.158;22.788;2023-02-15T08:57:41;25.42;;;14.73;;
12212;SDS011;6169;44.158;22.788;2023-02-15T09:02:45;21.63;;;14.30;;
12212;SDS011;6169;44.158;22.788;2023-02-15T09:07:47;20.75;;;12.38;;
12212;SDS011;6169;44.158;22.788;2023-02-15T09:12:51;20.15;;;11.10;;
12212;SDS011;6169;44.158;22.788;2023-02-15T09:17:53;19.30;;;10.77;;
12212;SDS011;6169;44.158;22.788;2023-02-15T09:22:55;16.63;;;11.15;;
12212;SDS011;6169;44.158;22.788;2023-02-15T09:27:59;21.00;;;10.38;;
12212;SDS011;6169;44.158;22.788;2023-02-15T09:33:01;16.90;;;9.35;;
12212;SDS011;6169;44.158;22.788;2023-02-15T09:38:03;14.77;;;8.73;;
12212;SDS011;6169;44.158;22.788;2023-02-15T09:43:16;16.58;;;8.75;;
12212;SDS011;6169;44.158;22.788;2023-02-15T09:48:31;13.95;;;9.82;;
12212;SDS011;6169;44.158;22.788;2023-02-15T09:53:47;24.30;;;10.73;;
12212;SDS011;6169;44.158;22.788;2023-02-15T09:58:59;14.35;;;9.65;;
12212;SDS011;6169;44.158;22.788;2023-02-15T10:04:14;19.10;;;14.15;;
12212;SDS011;6169;44.158;22.788;2023-02-15T10:09:34;14.88;;;8.65;;
12212;SDS011;6169;44.158;22.788;2023-02-15T10:14:52;14.05;;;9.18;;
12212;SDS011;6169;44.158;22.788;2023-02-15T10:20:10;12.27;;;8.48;;
12212;SDS011;6169;44.158;22.788;2023-02-15T10:25:27;16.55;;;9.85;;
12212;SDS011;6169;44.158;22.788;2023-02-15T10:30:39;12.10;;;8.13;;
12212;SDS011;6169;44.158;22.788;2023-02-15T10:35:49;16.23;;;10.32;;
12212;SDS011;6169;44.158;22.788;2023-02-15T10:41:02;14.75;;;8.38;;
12212;SDS011;6169;44.158;22.788;2023-02-15T10:46:19;14.38;;;8.75;;
12212;SDS011;6169;44.158;22.788;2023-02-15T10:51:33;12.65;;;8.27;;
12212;SDS011;6169;44.158;22.788;2023-02-15T10:56:43;13.35;;;8.23;;
12212;SDS011;6169;44.158;22.788;2023-02-15T11:01:54;16.10;;;10.13;;
12212;SDS011;6169;44.158;22.788;2023-02-15T11:07:02;11.50;;;9.18;;
12212;SDS011;6169;44.158;22.788;2023-02-15T11:12:10;14.27;;;9.48;;
12212;SDS011;6169;44.158;22.788;2023-02-15T11:17:18;14.18;;;9.27;;
12212;SDS011;6169;44.158;22.788;2023-02-15T11:22:24;11.88;;;8.05;;
12212;SDS011;6169;44.158;22.788;2023-02-15T11:27:27;14.18;;;8.88;;
12212;SDS011;6169;44.158;22.788;2023-02-15T11:32:34;13.88;;;9.35;;
12212;SDS011;6169;44.158;22.788;2023-02-15T11:37:40;15.60;;;10.48;;
12212;SDS011;6169;44.158;22.788;2023-02-15T11:42:47;15.77;;;9.48;;
12212;SDS011;6169;44.158;22.788;2023-02-15T11:47:53;16.10;;;9.57;;
12212;SDS011;6169;44.158;22.788;2023-02-15T11:52:57;17.35;;;11.73;;
12212;SDS011;6169;44.158;22.788;2023-02-15T11:58:03;19.45;;;12.35;;
12212;SDS011;6169;44.158;22.788;2023-02-15T12:03:14;18.15;;;12.82;;
12212;SDS011;6169;44.158;22.788;2023-02-15T12:08:20;25.00;;;13.30;;
12212;SDS011;6169;44.158;22.788;2023-02-15T12:13:23;22.15;;;13.70;;
12212;SDS011;6169;44.158;22.788;2023-02-15T12:18:33;21.08;;;13.15;;
12212;SDS011;6169;44.158;22.788;2023-02-15T12:23:43;22.52;;;12.90;;
12212;SDS011;6169;44.158;22.788;2023-02-15T12:28:50;91.40;;;48.60;;
12212;SDS011;6169;44.158;22.788;2023-02-15T12:33:56;29.55;;;18.92;;
12212;SDS011;6169;44.158;22.788;2023-02-15T12:39:02;20.35;;;13.52;;
12212;SDS011;6169;44.158;22.788;2023-02-15T12:44:07;21.67;;;14.52;;
12212;SDS011;6169;44.158;22.788;2023-02-15T12:49:20;21.83;;;14.25;;
12212;SDS011;6169;44.158;22.788;2023-02-15T12:54:26;22.70;;;15.30;;
12212;SDS011;6169;44.158;22.788;2023-02-15T12:59:31;21.45;;;14.48;;
12212;SDS011;6169;44.158;22.788;2023-02-15T13:04:36;22.00;;;14.75;;
12212;SDS011;6169;44.158;22.788;2023-02-15T13:09:38;22.15;;;14.48;;
12212;SDS011;6169;44.158;22.788;2023-02-15T13:14:43;24.23;;;15.85;;
12212;SDS011;6169;44.158;22.788;2023-02-15T13:19:48;22.10;;;16.02;;
12212;SDS011;6169;44.158;22.788;2023-02-15T13:24:55;28.23;;;16.73;;
12212;SDS011;6169;44.158;22.788;2023-02-15T13:30:00;22.08;;;14.88;;
12212;SDS011;6169;44.158;22.788;2023-02-15T13:35:13;25.42;;;16.95;;
12212;SDS011;6169;44.158;22.788;2023-02-15T13:40:20;24.33;;;15.73;;
12212;SDS011;6169;44.158;22.788;2023-02-15T13:45:32;22.67;;;14.82;;
12212;SDS011;6169;44.158;22.788;2023-02-15T13:50:57;24.58;;;17.40;;
12212;SDS011;6169;44.158;22.788;2023-02-15T13:56:10;32.08;;;19.95;;
12212;SDS011;6169;44.158;22.788;2023-02-15T14:01:22;27.50;;;16.08;;
12212;SDS011;6169;44.158;22.788;2023-02-15T14:06:37;32.35;;;19.88;;
12212;SDS011;6169;44.158;22.788;2023-02-15T14:12:04;20.08;;;15.48;;
12212;SDS011;6169;44.158;22.788;2023-02-15T14:17:22;24.92;;;15.50;;
12212;SDS011;6169;44.158;22.788;2023-02-15T14:22:34;24.13;;;15.90;;
12212;SDS011;6169;44.158;22.788;2023-02-15T14:27:43;28.27;;;17.42;;
12212;SDS011;6169;44.158;22.788;2023-02-15T14:32:54;24.88;;;16.27;;
12212;SDS011;6169;44.158;22.788;2023-02-15T14:38:04;24.52;;;15.90;;
12212;SDS011;6169;44.158;22.788;2023-02-15T14:43:15;35.30;;;17.15;;
12212;SDS011;6169;44.158;22.788;2023-02-15T14:48:28;28.02;;;18.48;;
12212;SDS011;6169;44.158;22.788;2023-02-15T14:53:35;26.80;;;16.27;;
12212;SDS011;6169;44.158;22.788;2023-02-15T14:58:40;26.88;;;15.55;;
12212;SDS011;6169;44.158;22.788;2023-02-15T15:03:58;25.48;;;15.85;;
12212;SDS011;6169;44.158;22.788;2023-02-15T15:09:11;28.17;;;17.23;;
12212;SDS011;6169;44.158;22.788;2023-02-15T15:14:36;26.98;;;17.02;;
12212;SDS011;6169;44.158;22.788;2023-02-15T15:25:10;24.83;;;15.63;;
12212;SDS011;6169;44.158;22.788;2023-02-15T15:30:47;27.50;;;19.08;;
12212;SDS011;6169;44.158;22.788;2023-02-15T15:35:55;26.50;;;17.85;;
12212;SDS011;6169;44.158;22.788;2023-02-15T15:41:19;27.98;;;17.33;;
12212;SDS011;6169;44.158;22.788;2023-02-15T15:46:45;34.00;;;17.60;;
12212;SDS011;6169;44.158;22.788;2023-02-15T15:52:13;28.52;;;17.02;;
12212;SDS011;6169;44.158;22.788;2023-02-15T15:57:19;48.05;;;30.02;;
12212;SDS011;6169;44.158;22.788;2023-02-15T16:02:27;86.63;;;46.78;;
12212;SDS011;6169;44.158;22.788;2023-02-15T16:07:30;35.25;;;23.98;;
12212;SDS011;6169;44.158;22.788;2023-02-15T16:12:35;29.98;;;18.30;;
12212;SDS011;6169;44.158;22.788;2023-02-15T16:17:40;32.78;;;22.00;;
12212;SDS011;6169;44.158;22.788;2023-02-15T16:22:44;37.03;;;23.40;;
12212;SDS011;6169;44.158;22.788;2023-02-15T16:27:49;25.92;;;17.67;;
12212;SDS011;6169;44.158;22.788;2023-02-15T16:32:56;26.17;;;17.08;;
12212;SDS011;6169;44.158;22.788;2023-02-15T16:38:08;25.88;;;17.50;;
12212;SDS011;6169;44.158;22.788;2023-02-15T16:43:15;26.60;;;17.33;;
12212;SDS011;6169;44.158;22.788;2023-02-15T16:48:21;33.17;;;20.97;;
12212;SDS011;6169;44.158;22.788;2023-02-15T16:53:27;28.70;;;17.90;;
12212;SDS011;6169;44.158;22.788;2023-02-15T16:58:32;30.07;;;19.60;;
12212;SDS011;6169;44.158;22.788;2023-02-15T17:03:39;34.10;;;21.50;;
12212;SDS011;6169;44.158;22.788;2023-02-15T17:08:43;31.30;;;18.30;;
12212;SDS011;6169;44.158;22.788;2023-02-15T17:19:22;28.97;;;19.37;;
12212;SDS011;6169;44.158;22.788;2023-02-15T17:24:34;39.57;;;23.37;;
12212;SDS011;6169;44.158;22.788;2023-02-15T17:29:40;31.27;;;18.60;;
12212;SDS011;6169;44.158;22.788;2023-02-15T17:34:47;30.67;;;19.37;;
12212;SDS011;6169;44.158;22.788;2023-02-15T17:40:16;32.00;;;19.63;;
12212;SDS011;6169;44.158;22.788;2023-02-15T17:45:24;28.23;;;19.10;;
12212;SDS011;6169;44.158;22.788;2023-02-15T17:50:32;31.73;;;18.98;;
12212;SDS011;6169;44.158;22.788;2023-02-15T17:55:34;34.73;;;20.93;;
12212;SDS011;6169;44.158;22.788;2023-02-15T18:00:41;38.43;;;22.77;;
12212;SDS011;6169;44.158;22.788;2023-02-15T18:06:03;35.70;;;19.97;;
12212;SDS011;6169;44.158;22.788;2023-02-15T18:11:23;32.33;;;19.90;;
12212;SDS011;6169;44.158;22.788;2023-02-15T18:16:37;35.63;;;20.47;;
12212;SDS011;6169;44.158;22.788;2023-02-15T18:21:43;31.37;;;19.23;;
12212;SDS011;6169;44.158;22.788;2023-02-15T18:26:45;30.07;;;18.53;;
12212;SDS011;6169;44.158;22.788;2023-02-15T18:31:50;37.33;;;21.37;;
12212;SDS011;6169;44.158;22.788;2023-02-15T18:36:54;35.43;;;20.77;;
12212;SDS011;6169;44.158;22.788;2023-02-15T18:41:58;30.27;;;18.70;;
12212;SDS011;6169;44.158;22.788;2023-02-15T18:47:01;33.50;;;21.90;;
12212;SDS011;6169;44.158;22.788;2023-02-15T18:52:04;36.97;;;22.10;;
12212;SDS011;6169;44.158;22.788;2023-02-15T18:57:08;38.20;;;23.47;;
12212;SDS011;6169;44.158;22.788;2023-02-15T19:02:15;36.90;;;23.03;;
12212;SDS011;6169;44.158;22.788;2023-02-15T19:07:20;35.50;;;21.70;;
12212;SDS011;6169;44.158;22.788;2023-02-15T19:12:24;35.77;;;21.23;;
12212;SDS011;6169;44.158;22.788;2023-02-15T19:17:28;37.57;;;23.23;;
12212;SDS011;6169;44.158;22.788;2023-02-15T19:22:30;36.73;;;22.40;;
12212;SDS011;6169;44.158;22.788;2023-02-15T19:27:34;46.90;;;23.97;;
12212;SDS011;6169;44.158;22.788;2023-02-15T19:32:38;38.17;;;22.37;;
12212;SDS011;6169;44.158;22.788;2023-02-15T19:37:42;38.93;;;23.97;;
12212;SDS011;6169;44.158;22.788;2023-02-15T19:42:47;40.67;;;23.90;;
12212;SDS011;6169;44.158;22.788;2023-02-15T19:47:51;39.73;;;23.93;;
12212;SDS011;6169;44.158;22.788;2023-02-15T19:52:54;37.07;;;24.27;;
12212;SDS011;6169;44.158;22.788;2023-02-15T19:57:57;38.70;;;22.00;;
12212;SDS011;6169;44.158;22.788;2023-02-15T20:03:02;41.27;;;22.63;;
12212;SDS011;6169;44.158;22.788;2023-02-15T20:08:04;35.60;;;22.93;;
12212;SDS011;6169;44.158;22.788;2023-02-15T20:13:09;36.07;;;21.60;;
12212;SDS011;6169;44.158;22.788;2023-02-15T20:18:16;35.47;;;22.93;;
12212;SDS011;6169;44.158;22.788;2023-02-15T20:23:19;37.20;;;20.23;;
12212;SDS011;6169;44.158;22.788;2023-02-15T20:28:24;34.77;;;22.33;;
12212;SDS011;6169;44.158;22.788;2023-02-15T20:33:30;40.10;;;23.27;;
12212;SDS011;6169;44.158;22.788;2023-02-15T20:38:32;38.60;;;22.10;;
12212;SDS011;6169;44.158;22.788;2023-02-15T20:43:34;40.73;;;22.97;;
12212;SDS011;6169;44.158;22.788;2023-02-15T20:48:38;35.53;;;21.93;;
12212;SDS011;6169;44.158;22.788;2023-02-15T20:53:40;41.70;;;24.13;;
12212;SDS011;6169;44.158;22.788;2023-02-15T20:58:42;39.13;;;22.10;;
12212;SDS011;6169;44.158;22.788;2023-02-15T21:03:46;39.17;;;22.23;;
12212;SDS011;6169;44.158;22.788;2023-02-15T21:08:48;42.50;;;24.63;;
12212;SDS011;6169;44.158;22.788;2023-02-15T21:13:50;43.60;;;23.40;;
12212;SDS011;6169;44.158;22.788;2023-02-15T21:18:54;42.00;;;23.33;;
12212;SDS011;6169;44.158;22.788;2023-02-15T21:23:56;43.43;;;24.47;;
12212;SDS011;6169;44.158;22.788;2023-02-15T21:28:58;44.17;;;24.50;;
12212;SDS011;6169;44.158;22.788;2023-02-15T21:34:03;43.07;;;24.90;;
12212;SDS011;6169;44.158;22.788;2023-02-15T21:39:05;41.13;;;24.47;;
12212;SDS011;6169;44.158;22.788;2023-02-15T21:44:13;40.03;;;24.07;;
12212;SDS011;6169;44.158;22.788;2023-02-15T21:49:35;48.00;;;26.70;;
12212;SDS011;6169;44.158;22.788;2023-02-15T21:54:37;47.37;;;26.50;;
12212;SDS011;6169;44.158;22.788;2023-02-15T21:59:40;43.57;;;24.87;;
12212;SDS011;6169;44.158;22.788;2023-02-15T22:04:44;42.80;;;25.67;;
12212;SDS011;6169;44.158;22.788;2023-02-15T22:09:46;49.33;;;26.53;;
12212;SDS011;6169;44.158;22.788;2023-02-15T22:14:49;43.90;;;24.97;;
12212;SDS011;6169;44.158;22.788;2023-02-15T22:19:54;48.87;;;26.10;;
12212;SDS011;6169;44.158;22.788;2023-02-15T22:24:57;52.47;;;26.00;;
12212;SDS011;6169;44.158;22.788;2023-02-15T22:29:59;46.97;;;26.13;;
12212;SDS011;6169;44.158;22.788;2023-02-15T22:35:05;41.07;;;25.37;;
12212;SDS011;6169;44.158;22.788;2023-02-15T22:40:12;43.73;;;22.67;;
12212;SDS011;6169;44.158;22.788;2023-02-15T22:45:15;35.00;;;21.47;;
12212;SDS011;6169;44.158;22.788;2023-02-15T22:50:21;38.33;;;23.03;;
12212;SDS011;6169;44.158;22.788;2023-02-15T22:55:25;40.27;;;24.20;;
12212;SDS011;6169;44.158;22.788;2023-02-15T23:00:31;41.63;;;23.33;;
12212;SDS011;6169;44.158;22.788;2023-02-15T23:05:37;42.27;;;24.87;;
12212;SDS011;6169;44.158;22.788;2023-02-15T23:10:39;47.90;;;24.47;;
12212;SDS011;6169;44.158;22.788;2023-02-15T23:15:44;41.10;;;23.10;;
12212;SDS011;6169;44.158;22.788;2023-02-15T23:20:50;41.43;;;23.33;;
12212;SDS011;6169;44.158;22.788;2023-02-15T23:25:54;36.50;;;20.80;;
12212;SDS011;6169;44.158;22.788;2023-02-15T23:30:57;36.50;;;21.97;;
12212;SDS011;6169;44.158;22.788;2023-02-15T23:36:02;37.67;;;21.60;;
12212;SDS011;6169;44.158;22.788;2023-02-15T23:41:05;38.63;;;22.60;;
12212;SDS011;6169;44.158;22.788;2023-02-15T23:46:31;36.67;;;21.73;;
12212;SDS011;6169;44.158;22.788;2023-02-15T23:51:41;36.03;;;20.50;;
12212;SDS011;6169;44.158;22.788;2023-02-15T23:56:45;41.53;;;21.93;;
